Flight Track Log - Related Links

Times and Time Zones

All times are in EDT time to prevent confusion due to time zone crossing. See the KAL61 flight status page for this flight to view local times or setup timezone preferences in your user account.

Time Position Orientation Groundspeed Altitude Reporting Facility
EDT Latitude Longitude Course Direction KTS MPH feet Rate Location/Type
Fri 10:12:35 PM 33.9408 -118.4892 221° Southwest 195 224 2,500  Level Los Angeles Center
Fri 10:13:37 PM 33.8978 -118.5347 221° Southwest 216 249 3,900 1,512 Climbing Los Angeles Center
Fri 10:14:38 PM 33.8264 -118.5297 177° South 265 305 5,600 1,902 Climbing Los Angeles Center
Fri 10:15:40 PM 33.7500 -118.5217 175° South 277 319 7,800 2,129 Climbing Los Angeles Center
Fri 10:16:42 PM 33.6578 -118.4792 159° South 320 368 10,000 2,341 Climbing Los Angeles Center
Fri 10:17:43 PM 33.6325 -118.3786 107° East 319 367 12,600 2,390 Climbing Los Angeles Center
Fri 10:18:45 PM 33.6086 -118.2722 105° East 332 382 14,900 1,984 Climbing Los Angeles Center
Fri 10:19:47 PM 33.5764 -118.1589 109° East 360 414 16,700 1,610 Climbing Los Angeles Center
Fri 10:20:48 PM 33.5422 -118.0317 108° East 401 461 18,200 2,000 Climbing Los Angeles Center
Fri 10:21:50 PM 33.4981 -117.8711 108° East 425 489 20,800 2,177 Climbing Los Angeles Center
Fri 10:22:52 PM 33.4608 -117.7342 108° East 434 499 22,700 1,790 Climbing Los Angeles Center
Fri 10:23:54 PM 33.4217 -117.5928 108° East 449 517 24,500 1,511 Climbing Los Angeles Center
Fri 10:25:07 PM 33.3811 -117.4469 108° East 462 532 26,100 1,422 Climbing Los Angeles Center
Fri 10:26:09 PM 33.3303 -117.2672 109° East 479 551 27,700 1,440 Climbing Los Angeles Center
Fri 10:27:12 PM 33.2856 -117.1036 108° East 492 566 29,100 1,306 Climbing Los Angeles Center
Fri 10:28:13 PM 33.2286 -116.9511 114° Southeast 506 582 30,400 1,366 Climbing Los Angeles Center
Fri 10:29:15 PM 33.1644 -116.8006 117° Southeast 509 586 31,900 1,258 Climbing Los Angeles Center
Fri 10:30:17 PM 33.0992 -116.6514 118° Southeast 505 581 33,000 537 Climbing Los Angeles Center
Fri 10:31:18 PM 33.0253 -116.4825 118° Southeast 508 585 33,000  Level Los Angeles Center
Fri 10:32:20 PM 32.9614 -116.3311 117° Southeast 516 594 33,000  Level Los Angeles Center
Fri 10:33:21 PM 32.8819 -116.1597 119° Southeast 518 596 33,000  Level Los Angeles Center
Fri 10:34:23 PM 32.8136 -116.0089 118° Southeast 517 595 33,000  Level Los Angeles Center
Fri 10:35:25 PM 32.7458 -115.8586 118° Southeast 516 594 33,000 -48 Level Los Angeles Center
Fri 10:36:27 PM 32.6778 -115.7072 118° Southeast 518 596 32,900 -97 Descending Los Angeles Center
Fri 10:38:00 PM 32.5397 -115.5175 124° Southeast  Level FlightAware Approximate
Fri 10:45:00 PM 32.0087 -114.5911 124° Southeast  Level FlightAware Approximate
Fri 10:46:00 PM 31.9323 -114.4597 124° Southeast  Level FlightAware Approximate
Fri 10:47:00 PM 31.8558 -114.3284 124° Southeast  Level FlightAware Approximate
Fri 10:48:00 PM 31.7791 -114.1974 125° Southeast  Level FlightAware Approximate
Fri 10:49:00 PM 31.7023 -114.0666 125° Southeast  Level FlightAware Approximate
Fri 10:50:00 PM 31.6254 -113.9360 125° Southeast  Level FlightAware Approximate
Fri 10:51:00 PM 31.5483 -113.8056 125° Southeast  Level FlightAware Approximate
Fri 10:52:00 PM 31.4711 -113.6755 125° Southeast  Level FlightAware Approximate
Fri 10:53:00 PM 31.3938 -113.5455 125° Southeast  Level FlightAware Approximate
Fri 10:54:00 PM 31.3222 -113.4114 120° Southeast  Level FlightAware Approximate
Fri 10:55:00 PM 31.2536 -113.2751 120° Southeast  Level FlightAware Approximate
Fri 10:56:00 PM 31.1848 -113.1391 121° Southeast  Level FlightAware Approximate
Fri 10:57:00 PM 31.1159 -113.0032 121° Southeast  Level FlightAware Approximate
Fri 10:58:00 PM 31.0468 -112.8675 121° Southeast  Level FlightAware Approximate
Fri 10:59:00 PM 30.9776 -112.7320 121° Southeast  Level FlightAware Approximate
Fri 11:00:00 PM 30.9083 -112.5967 121° Southeast  Level FlightAware Approximate
Fri 11:01:00 PM 30.8383 -112.4619 122° Southeast  Level FlightAware Approximate
Fri 11:02:00 PM 30.7658 -112.3292 122° Southeast  Level FlightAware Approximate
Fri 11:03:00 PM 30.6931 -112.1966 123° Southeast  Level FlightAware Approximate
Fri 11:04:00 PM 30.6202 -112.0642 123° Southeast  Level FlightAware Approximate
Fri 11:05:00 PM 30.5472 -111.9320 123° Southeast  Level FlightAware Approximate
Fri 11:06:00 PM 30.4742 -111.8000 123° Southeast  Level FlightAware Approximate
Fri 11:07:00 PM 30.4013 -111.6680 123° Southeast  Level FlightAware Approximate
Fri 11:08:00 PM 30.3282 -111.5361 123° Southeast  Level FlightAware Approximate
Fri 11:09:00 PM 30.2551 -111.4045 123° Southeast  Level FlightAware Approximate
Fri 11:10:00 PM 30.1818 -111.2730 123° Southeast  Level FlightAware Approximate
Fri 11:11:00 PM 30.1084 -111.1418 123° Southeast  Level FlightAware Approximate
Fri 11:12:00 PM 30.0348 -111.0107 123° Southeast  Level FlightAware Approximate
Fri 11:13:00 PM 29.9611 -110.8799 123° Southeast  Level FlightAware Approximate
Fri 11:14:00 PM 29.8873 -110.7492 123° Southeast  Level FlightAware Approximate
Fri 11:15:00 PM 29.8134 -110.6187 123° Southeast  Level FlightAware Approximate
Fri 11:16:00 PM 29.7395 -110.4883 123° Southeast  Level FlightAware Approximate
Fri 11:17:00 PM 29.6655 -110.3580 123° Southeast  Level FlightAware Approximate
Fri 11:18:00 PM 29.5914 -110.2280 123° Southeast  Level FlightAware Approximate
Fri 11:19:00 PM 29.5171 -110.0982 123° Southeast  Level FlightAware Approximate
Fri 11:20:00 PM 29.4427 -109.9686 123° Southeast  Level FlightAware Approximate
Fri 11:21:00 PM 29.3681 -109.8391 123° Southeast  Level FlightAware Approximate
Fri 11:22:00 PM 29.2935 -109.7098 123° Southeast  Level FlightAware Approximate
Fri 11:23:00 PM 29.2187 -109.5808 124° Southeast  Level FlightAware Approximate
Fri 11:24:00 PM 29.1438 -109.4519 124° Southeast  Level FlightAware Approximate
Fri 11:25:00 PM 29.0688 -109.3232 124° Southeast  Level FlightAware Approximate
Fri 11:26:00 PM 28.9936 -109.1947 124° Southeast  Level FlightAware Approximate
Fri 11:27:00 PM 28.9183 -109.0664 124° Southeast  Level FlightAware Approximate
Fri 11:28:00 PM 28.8429 -108.9382 124° Southeast  Level FlightAware Approximate
Fri 11:29:00 PM 28.7674 -108.8103 124° Southeast  Level FlightAware Approximate
Fri 11:30:00 PM 28.6918 -108.6825 124° Southeast  Level FlightAware Approximate
Fri 11:31:00 PM 28.6160 -108.5549 124° Southeast  Level FlightAware Approximate
Fri 11:32:00 PM 28.5408 -108.4270 124° Southeast  Level FlightAware Approximate
Fri 11:33:00 PM 28.4660 -108.2989 124° Southeast  Level FlightAware Approximate
Fri 11:34:00 PM 28.3911 -108.1710 124° Southeast  Level FlightAware Approximate
Fri 11:35:00 PM 28.3160 -108.0432 124° Southeast  Level FlightAware Approximate
Fri 11:36:00 PM 28.2409 -107.9156 124° Southeast  Level FlightAware Approximate
Fri 11:37:00 PM 28.1656 -107.7882 124° Southeast  Level FlightAware Approximate
Fri 11:38:00 PM 28.0902 -107.6610 124° Southeast  Level FlightAware Approximate
Fri 11:39:00 PM 28.0146 -107.5340 124° Southeast  Level FlightAware Approximate
Fri 11:40:00 PM 27.9390 -107.4071 124° Southeast  Level FlightAware Approximate
Fri 11:41:00 PM 27.8632 -107.2804 124° Southeast  Level FlightAware Approximate
Fri 11:42:00 PM 27.7874 -107.1539 124° Southeast  Level FlightAware Approximate
Fri 11:43:00 PM 27.7114 -107.0276 124° Southeast  Level FlightAware Approximate
Fri 11:44:00 PM 27.6353 -106.9014 124° Southeast  Level FlightAware Approximate
Fri 11:45:00 PM 27.5591 -106.7755 124° Southeast  Level FlightAware Approximate
Fri 11:46:00 PM 27.4827 -106.6497 124° Southeast  Level FlightAware Approximate
Fri 11:47:00 PM 27.4063 -106.5240 124° Southeast  Level FlightAware Approximate
Fri 11:48:00 PM 27.3297 -106.3986 124° Southeast  Level FlightAware Approximate
Fri 11:49:00 PM 27.2531 -106.2733 125° Southeast  Level FlightAware Approximate
Fri 11:50:00 PM 27.1763 -106.1482 125° Southeast  Level FlightAware Approximate
Fri 11:51:00 PM 27.0994 -106.0232 125° Southeast  Level FlightAware Approximate
Fri 11:52:00 PM 27.0224 -105.8985 125° Southeast  Level FlightAware Approximate
Fri 11:53:00 PM 26.9453 -105.7739 125° Southeast  Level FlightAware Approximate
Fri 11:54:00 PM 26.8681 -105.6495 125° Southeast  Level FlightAware Approximate
Fri 11:55:00 PM 26.7907 -105.5252 125° Southeast  Level FlightAware Approximate
Fri 11:56:00 PM 26.7133 -105.4011 125° Southeast  Level FlightAware Approximate
Fri 11:57:00 PM 26.6357 -105.2772 125° Southeast  Level FlightAware Approximate
Fri 11:58:00 PM 26.5581 -105.1535 125° Southeast  Level FlightAware Approximate
Fri 11:59:00 PM 26.4803 -105.0299 125° Southeast  Level FlightAware Approximate
Sat 12:00:00 AM 26.4025 -104.9065 125° Southeast  Level FlightAware Approximate
Sat 12:01:00 AM 26.3245 -104.7832 125° Southeast  Level FlightAware Approximate
Sat 12:02:00 AM 26.2464 -104.6601 125° Southeast  Level FlightAware Approximate
Sat 12:03:00 AM 26.1683 -104.5372 125° Southeast  Level FlightAware Approximate
Sat 12:04:00 AM 26.0900 -104.4145 125° Southeast  Level FlightAware Approximate
Sat 12:05:00 AM 26.0116 -104.2919 125° Southeast  Level FlightAware Approximate
Sat 12:06:00 AM 25.9331 -104.1695 125° Southeast  Level FlightAware Approximate
Sat 12:07:00 AM 25.8545 -104.0472 126° Southeast  Level FlightAware Approximate
Sat 12:08:00 AM 25.7758 -103.9251 126° Southeast  Level FlightAware Approximate
Sat 12:09:00 AM 25.6970 -103.8032 126° Southeast  Level FlightAware Approximate
Sat 12:10:00 AM 25.6181 -103.6814 126° Southeast  Level FlightAware Approximate
Sat 12:11:00 AM 25.5391 -103.5598 126° Southeast  Level FlightAware Approximate
Sat 12:12:00 AM 25.4600 -103.4384 126° Southeast  Level FlightAware Approximate
Sat 12:13:00 AM 25.3808 -103.3171 126° Southeast  Level FlightAware Approximate
Sat 12:14:00 AM 25.3015 -103.1959 126° Southeast  Level FlightAware Approximate
Sat 12:15:00 AM 25.2221 -103.0750 126° Southeast  Level FlightAware Approximate
Sat 12:16:00 AM 25.1435 -102.9535 126° Southeast  Level FlightAware Approximate
Sat 12:17:00 AM 25.0649 -102.8320 126° Southeast  Level FlightAware Approximate
Sat 12:18:00 AM 24.9861 -102.7108 126° Southeast  Level FlightAware Approximate
Sat 12:19:00 AM 24.9073 -102.5897 126° Southeast  Level FlightAware Approximate
Sat 12:20:00 AM 24.8283 -102.4687 126° Southeast  Level FlightAware Approximate
Sat 12:21:00 AM 24.7493 -102.3479 126° Southeast  Level FlightAware Approximate
Sat 12:22:00 AM 24.6702 -102.2273 126° Southeast  Level FlightAware Approximate
Sat 12:23:00 AM 24.5909 -102.1068 126° Southeast  Level FlightAware Approximate
Sat 12:24:00 AM 24.5116 -101.9865 126° Southeast  Level FlightAware Approximate
Sat 12:25:00 AM 24.4322 -101.8663 126° Southeast  Level FlightAware Approximate
Sat 12:26:00 AM 24.3526 -101.7463 126° Southeast  Level FlightAware Approximate
Sat 12:27:00 AM 24.2730 -101.6264 126° Southeast  Level FlightAware Approximate
Sat 12:28:00 AM 24.1933 -101.5067 126° Southeast  Level FlightAware Approximate
Sat 12:29:00 AM 24.1061 -101.3937 132° Southeast  Level FlightAware Approximate
Sat 12:30:00 AM 24.0151 -101.2843 132° Southeast  Level FlightAware Approximate
Sat 12:31:00 AM 23.9239 -101.1750 132° Southeast  Level FlightAware Approximate
Sat 12:32:00 AM 23.8328 -101.0659 132° Southeast  Level FlightAware Approximate
Sat 12:33:00 AM 23.7415 -100.9569 132° Southeast  Level FlightAware Approximate
Sat 12:34:00 AM 23.6501 -100.8481 132° Southeast  Level FlightAware Approximate
Sat 12:35:00 AM 23.5587 -100.7394 133° Southeast  Level FlightAware Approximate
Sat 12:36:00 AM 23.4659 -100.6323 131° Southeast  Level FlightAware Approximate
Sat 12:37:00 AM 23.3778 -100.5206 131° Southeast  Level FlightAware Approximate
Sat 12:38:00 AM 23.2897 -100.4090 131° Southeast  Level FlightAware Approximate
Sat 12:39:00 AM 23.2011 -100.2978 132° Southeast  Level FlightAware Approximate
Sat 12:40:00 AM 23.1108 -100.1884 132° Southeast  Level FlightAware Approximate
Sat 12:41:00 AM 23.0204 -100.0792 132° Southeast  Level FlightAware Approximate
Sat 12:42:00 AM 22.9299 -99.9701 132° Southeast  Level FlightAware Approximate
Sat 12:43:00 AM 22.8393 -99.8612 132° Southeast  Level FlightAware Approximate
Sat 12:44:00 AM 22.7487 -99.7524 132° Southeast  Level FlightAware Approximate
Sat 12:45:00 AM 22.6580 -99.6437 132° Southeast  Level FlightAware Approximate
Sat 12:46:00 AM 22.5672 -99.5352 132° Southeast  Level FlightAware Approximate
Sat 12:47:00 AM 22.4764 -99.4269 132° Southeast  Level FlightAware Approximate
Sat 12:48:00 AM 22.3855 -99.3186 132° Southeast  Level FlightAware Approximate
Sat 12:49:00 AM 22.2945 -99.2106 132° Southeast  Level FlightAware Approximate
Sat 12:50:00 AM 22.2034 -99.1026 132° Southeast  Level FlightAware Approximate
Sat 12:51:00 AM 22.1123 -98.9948 132° Southeast  Level FlightAware Approximate
Sat 12:52:00 AM 22.0214 -98.8869 132° Southeast  Level FlightAware Approximate
Sat 12:53:00 AM 21.9304 -98.7791 132° Southeast  Level FlightAware Approximate
Sat 12:54:00 AM 21.8393 -98.6714 132° Southeast  Level FlightAware Approximate
Sat 12:55:00 AM 21.7482 -98.5639 132° Southeast  Level FlightAware Approximate
Sat 12:56:00 AM 21.6570 -98.4565 132° Southeast  Level FlightAware Approximate
Sat 12:57:00 AM 21.5657 -98.3492 132° Southeast  Level FlightAware Approximate
Sat 12:58:00 AM 21.4744 -98.2421 132° Southeast  Level FlightAware Approximate
Sat 12:59:00 AM 21.3830 -98.1351 133° Southeast  Level FlightAware Approximate
Sat 01:00:00 AM 21.2915 -98.0283 133° Southeast  Level FlightAware Approximate
Sat 01:01:00 AM 21.2000 -97.9216 133° Southeast  Level FlightAware Approximate
Sat 01:02:00 AM 21.1084 -97.8150 133° Southeast  Level FlightAware Approximate
Sat 01:03:00 AM 21.0167 -97.7085 133° Southeast  Level FlightAware Approximate
Sat 01:04:00 AM 20.9249 -97.6022 133° Southeast  Level FlightAware Approximate
Sat 01:05:00 AM 20.8331 -97.4960 133° Southeast  Level FlightAware Approximate
Sat 01:06:00 AM 20.7412 -97.3899 133° Southeast  Level FlightAware Approximate
Sat 01:07:00 AM 20.6493 -97.2840 133° Southeast  Level FlightAware Approximate
Sat 01:08:00 AM 20.5573 -97.1782 133° Southeast  Level FlightAware Approximate
Sat 01:09:00 AM 20.4652 -97.0725 133° Southeast  Level FlightAware Approximate
Sat 01:10:00 AM 20.3731 -96.9670 133° Southeast  Level FlightAware Approximate
Sat 01:11:00 AM 20.2811 -96.8613 132° Southeast  Level FlightAware Approximate
Sat 01:12:00 AM 20.1908 -96.7542 128° Southeast  Level FlightAware Approximate
Sat 01:13:00 AM 20.1075 -96.6408 128° Southeast  Level FlightAware Approximate
Sat 01:14:00 AM 20.0240 -96.5276 128° Southeast  Level FlightAware Approximate
Sat 01:15:00 AM 19.9405 -96.4145 128° Southeast  Level FlightAware Approximate
Sat 01:16:00 AM 19.8569 -96.3015 128° Southeast  Level FlightAware Approximate
Sat 01:17:00 AM 19.7732 -96.1887 128° Southeast  Level FlightAware Approximate
Sat 01:18:00 AM 19.6895 -96.0759 128° Southeast  Level FlightAware Approximate
Sat 01:19:00 AM 19.6057 -95.9633 128° Southeast  Level FlightAware Approximate
Sat 01:20:00 AM 19.5218 -95.8508 128° Southeast  Level FlightAware Approximate
Sat 01:21:00 AM 19.4379 -95.7384 128° Southeast  Level FlightAware Approximate
Sat 01:22:00 AM 19.3539 -95.6261 128° Southeast  Level FlightAware Approximate
Sat 01:23:00 AM 19.2698 -95.5140 128° Southeast  Level FlightAware Approximate
Sat 01:24:00 AM 19.1857 -95.4019 128° Southeast  Level FlightAware Approximate
Sat 01:25:00 AM 19.1014 -95.2900 129° Southeast  Level FlightAware Approximate
Sat 01:26:00 AM 19.0172 -95.1782 129° Southeast  Level FlightAware Approximate
Sat 01:27:00 AM 18.9326 -95.0666 129° Southeast  Level FlightAware Approximate
Sat 01:28:00 AM 18.8480 -94.9552 129° Southeast  Level FlightAware Approximate
Sat 01:29:00 AM 18.7632 -94.8440 129° Southeast  Level FlightAware Approximate
Sat 01:30:00 AM 18.6784 -94.7328 129° Southeast  Level FlightAware Approximate
Sat 01:31:00 AM 18.5935 -94.6218 129° Southeast  Level FlightAware Approximate
Sat 01:32:00 AM 18.5086 -94.5109 129° Southeast  Level FlightAware Approximate
Sat 01:33:00 AM 18.4235 -94.4001 129° Southeast  Level FlightAware Approximate
Sat 01:34:00 AM 18.3385 -94.2894 129° Southeast  Level FlightAware Approximate
Sat 01:35:00 AM 18.2533 -94.1788 129° Southeast  Level FlightAware Approximate
Sat 01:36:00 AM 18.1681 -94.0683 129° Southeast  Level FlightAware Approximate
Sat 01:37:00 AM 18.0828 -93.9580 129° Southeast  Level FlightAware Approximate
Sat 01:38:00 AM 17.9975 -93.8477 129° Southeast  Level FlightAware Approximate
Sat 01:39:00 AM 17.9121 -93.7375 129° Southeast  Level FlightAware Approximate
Sat 01:40:00 AM 17.8267 -93.6275 129° Southeast  Level FlightAware Approximate
Sat 01:41:00 AM 17.7411 -93.5175 129° Southeast  Level FlightAware Approximate
Sat 01:42:00 AM 17.6556 -93.4077 129° Southeast  Level FlightAware Approximate
Sat 01:43:00 AM 17.5699 -93.2980 129° Southeast  Level FlightAware Approximate
Sat 01:44:00 AM 17.4842 -93.1883 129° Southeast  Level FlightAware Approximate
Sat 01:45:00 AM 17.3985 -93.0788 129° Southeast  Level FlightAware Approximate
Sat 01:46:00 AM 17.3127 -92.9694 129° Southeast  Level FlightAware Approximate
Sat 01:47:00 AM 17.2268 -92.8601 129° Southeast  Level FlightAware Approximate
Sat 01:48:00 AM 17.1408 -92.7508 129° Southeast  Level FlightAware Approximate
Sat 01:49:00 AM 17.0548 -92.6417 129° Southeast  Level FlightAware Approximate
Sat 01:50:00 AM 16.9688 -92.5327 130° Southeast  Level FlightAware Approximate
Sat 01:51:00 AM 16.8827 -92.4238 130° Southeast  Level FlightAware Approximate
Sat 01:52:00 AM 16.7965 -92.3150 130° Southeast  Level FlightAware Approximate
Sat 01:53:00 AM 16.7103 -92.2062 130° Southeast  Level FlightAware Approximate
Sat 01:54:00 AM 16.6240 -92.0976 130° Southeast  Level FlightAware Approximate
Sat 01:55:00 AM 16.5376 -91.9891 130° Southeast  Level FlightAware Approximate
Sat 01:56:00 AM 16.4513 -91.8807 130° Southeast  Level FlightAware Approximate
Sat 01:57:00 AM 16.3648 -91.7723 130° Southeast  Level FlightAware Approximate
Sat 01:58:00 AM 16.2783 -91.6641 130° Southeast  Level FlightAware Approximate
Sat 01:59:00 AM 16.1917 -91.5559 130° Southeast  Level FlightAware Approximate
Sat 02:00:00 AM 16.1051 -91.4479 130° Southeast  Level FlightAware Approximate
Sat 02:01:00 AM 16.0187 -91.3398 130° Southeast  Level FlightAware Approximate
Sat 02:02:00 AM 15.9324 -91.2316 130° Southeast  Level FlightAware Approximate
Sat 02:03:00 AM 15.8460 -91.1234 130° Southeast  Level FlightAware Approximate
Sat 02:04:00 AM 15.7596 -91.0154 130° Southeast  Level FlightAware Approximate
Sat 02:05:00 AM 15.6731 -90.9075 130° Southeast  Level FlightAware Approximate
Sat 02:06:00 AM 15.5866 -90.7996 130° Southeast  Level FlightAware Approximate
Sat 02:07:00 AM 15.5000 -90.6919 130° Southeast  Level FlightAware Approximate
Sat 02:08:00 AM 15.4134 -90.5842 130° Southeast  Level FlightAware Approximate
Sat 02:09:00 AM 15.3267 -90.4766 130° Southeast  Level FlightAware Approximate
Sat 02:10:00 AM 15.2399 -90.3692 130° Southeast  Level FlightAware Approximate
Sat 02:11:00 AM 15.1531 -90.2618 130° Southeast  Level FlightAware Approximate
Sat 02:12:00 AM 15.0663 -90.1545 130° Southeast  Level FlightAware Approximate
Sat 02:13:00 AM 14.9794 -90.0472 130° Southeast  Level FlightAware Approximate
Sat 02:14:00 AM 14.8925 -89.9401 130° Southeast  Level FlightAware Approximate
Sat 02:15:00 AM 14.8055 -89.8331 130° Southeast  Level FlightAware Approximate
Sat 02:16:00 AM 14.7184 -89.7261 130° Southeast  Level FlightAware Approximate
Sat 02:17:00 AM 14.6313 -89.6192 130° Southeast  Level FlightAware Approximate
Sat 02:18:00 AM 14.5442 -89.5124 130° Southeast  Level FlightAware Approximate
Sat 02:19:00 AM 14.4570 -89.4057 130° Southeast  Level FlightAware Approximate
Sat 02:20:00 AM 14.3698 -89.2991 130° Southeast  Level FlightAware Approximate
Sat 02:21:00 AM 14.2825 -89.1926 130° Southeast  Level FlightAware Approximate
Sat 02:22:00 AM 14.1952 -89.0861 130° Southeast  Level FlightAware Approximate
Sat 02:23:00 AM 14.1078 -88.9797 130° Southeast  Level FlightAware Approximate
Sat 02:24:00 AM 14.0204 -88.8735 130° Southeast  Level FlightAware Approximate
Sat 02:25:00 AM 13.9329 -88.7672 130° Southeast  Level FlightAware Approximate
Sat 02:26:00 AM 13.8454 -88.6611 131° Southeast  Level FlightAware Approximate
Sat 02:27:00 AM 13.7576 -88.5553 131° Southeast  Level FlightAware Approximate
Sat 02:28:00 AM 13.6697 -88.4496 131° Southeast  Level FlightAware Approximate
Sat 02:29:00 AM 13.5818 -88.3439 131° Southeast  Level FlightAware Approximate
Sat 02:30:00 AM 13.4938 -88.2384 131° Southeast  Level FlightAware Approximate
Sat 02:31:00 AM 13.4058 -88.1329 131° Southeast  Level FlightAware Approximate
Sat 02:32:00 AM 13.3177 -88.0274 131° Southeast  Level FlightAware Approximate
Sat 02:33:00 AM 13.2296 -87.9221 131° Southeast  Level FlightAware Approximate
Sat 02:34:00 AM 13.1415 -87.8168 131° Southeast  Level FlightAware Approximate
Sat 02:35:00 AM 13.0533 -87.7116 131° Southeast  Level FlightAware Approximate
Sat 02:36:00 AM 12.9651 -87.6065 131° Southeast  Level FlightAware Approximate
Sat 02:37:00 AM 12.8768 -87.5015 131° Southeast  Level FlightAware Approximate
Sat 02:38:00 AM 12.7885 -87.3965 131° Southeast  Level FlightAware Approximate
Sat 02:39:00 AM 12.7001 -87.2916 131° Southeast  Level FlightAware Approximate
Sat 02:40:00 AM 12.6118 -87.1868 131° Southeast  Level FlightAware Approximate
Sat 02:41:00 AM 12.5233 -87.0820 131° Southeast  Level FlightAware Approximate
Sat 02:42:00 AM 12.4348 -86.9774 131° Southeast  Level FlightAware Approximate
Sat 02:43:00 AM 12.3463 -86.8728 131° Southeast  Level FlightAware Approximate
Sat 02:44:00 AM 12.2578 -86.7682 131° Southeast  Level FlightAware Approximate
Sat 02:45:00 AM 12.1692 -86.6638 131° Southeast  Level FlightAware Approximate
Sat 02:46:00 AM 12.0806 -86.5594 131° Southeast  Level FlightAware Approximate
Sat 02:47:00 AM 11.9919 -86.4551 131° Southeast  Level FlightAware Approximate
Sat 02:48:00 AM 11.9032 -86.3508 131° Southeast  Level FlightAware Approximate
Sat 02:49:00 AM 11.8145 -86.2465 131° Southeast  Level FlightAware Approximate
Sat 02:50:00 AM 11.7259 -86.1423 131° Southeast  Level FlightAware Approximate
Sat 02:51:00 AM 11.6371 -86.0381 131° Southeast  Level FlightAware Approximate
Sat 02:52:00 AM 11.5484 -85.9340 131° Southeast  Level FlightAware Approximate
Sat 02:53:00 AM 11.4596 -85.8300 131° Southeast  Level FlightAware Approximate
Sat 02:54:00 AM 11.3708 -85.7260 131° Southeast  Level FlightAware Approximate
Sat 02:55:00 AM 11.2819 -85.6221 131° Southeast  Level FlightAware Approximate
Sat 02:56:00 AM 11.1930 -85.5183 131° Southeast  Level FlightAware Approximate
Sat 02:57:00 AM 11.1041 -85.4146 131° Southeast  Level FlightAware Approximate
Sat 02:58:00 AM 11.0151 -85.3109 131° Southeast  Level FlightAware Approximate
Sat 02:59:00 AM 10.9261 -85.2072 131° Southeast  Level FlightAware Approximate
Sat 03:00:00 AM 10.8371 -85.1036 131° Southeast  Level FlightAware Approximate
Sat 03:01:00 AM 10.7480 -85.0001 131° Southeast  Level FlightAware Approximate
Sat 03:02:00 AM 10.6589 -84.8967 131° Southeast  Level FlightAware Approximate
Sat 03:03:00 AM 10.5698 -84.7933 131° Southeast  Level FlightAware Approximate
Sat 03:04:00 AM 10.4806 -84.6899 131° Southeast  Level FlightAware Approximate
Sat 03:05:00 AM 10.3914 -84.5867 131° Southeast  Level FlightAware Approximate
Sat 03:06:00 AM 10.3022 -84.4835 131° Southeast  Level FlightAware Approximate
Sat 03:07:00 AM 10.2129 -84.3803 131° Southeast  Level FlightAware Approximate
Sat 03:08:00 AM 10.1236 -84.2772 131° Southeast  Level FlightAware Approximate
Sat 03:09:00 AM 10.0343 -84.1741 131° Southeast  Level FlightAware Approximate
Sat 03:10:00 AM 9.9449 -84.0712 131° Southeast  Level FlightAware Approximate
Sat 03:11:00 AM 9.8555 -83.9682 131° Southeast  Level FlightAware Approximate
Sat 03:12:00 AM 9.7661 -83.8654 131° Southeast  Level FlightAware Approximate
Sat 03:13:00 AM 9.6766 -83.7625 131° Southeast  Level FlightAware Approximate
Sat 03:14:00 AM 9.5871 -83.6598 131° Southeast  Level FlightAware Approximate
Sat 03:15:00 AM 9.4976 -83.5571 131° Southeast  Level FlightAware Approximate
Sat 03:16:00 AM 9.4080 -83.4544 131° Southeast  Level FlightAware Approximate
Sat 03:17:00 AM 9.3184 -83.3518 131° Southeast  Level FlightAware Approximate
Sat 03:18:00 AM 9.2288 -83.2493 132° Southeast  Level FlightAware Approximate
Sat 03:19:00 AM 9.1392 -83.1468 132° Southeast  Level FlightAware Approximate
Sat 03:20:00 AM 9.0495 -83.0443 132° Southeast  Level FlightAware Approximate
Sat 03:21:00 AM 8.9598 -82.9419 132° Southeast  Level FlightAware Approximate
Sat 03:22:00 AM 8.8701 -82.8396 132° Southeast  Level FlightAware Approximate
Sat 03:23:00 AM 8.7806 -82.7371 131° Southeast  Level FlightAware Approximate
Sat 03:24:00 AM 8.6910 -82.6347 131° Southeast  Level FlightAware Approximate
Sat 03:25:00 AM 8.6015 -82.5322 131° Southeast  Level FlightAware Approximate
Sat 03:26:00 AM 8.5119 -82.4298 131° Southeast  Level FlightAware Approximate
Sat 03:27:00 AM 8.4223 -82.3275 132° Southeast  Level FlightAware Approximate
Sat 03:28:00 AM 8.3327 -82.2252 132° Southeast  Level FlightAware Approximate
Sat 03:29:00 AM 8.2429 -82.1231 132° Southeast  Level FlightAware Approximate
Sat 03:30:00 AM 8.1528 -82.0213 132° Southeast  Level FlightAware Approximate
Sat 03:31:00 AM 8.0626 -81.9195 132° Southeast  Level FlightAware Approximate
Sat 03:32:00 AM 7.9725 -81.8178 132° Southeast  Level FlightAware Approximate
Sat 03:33:00 AM 7.8823 -81.7161 132° Southeast  Level FlightAware Approximate
Sat 03:34:00 AM 7.7921 -81.6145 132° Southeast  Level FlightAware Approximate
Sat 03:35:00 AM 7.7019 -81.5129 132° Southeast  Level FlightAware Approximate
Sat 03:36:00 AM 7.6116 -81.4114 132° Southeast  Level FlightAware Approximate
Sat 03:37:00 AM 7.5214 -81.3099 132° Southeast  Level FlightAware Approximate
Sat 03:38:00 AM 7.4311 -81.2084 132° Southeast  Level FlightAware Approximate
Sat 03:39:00 AM 7.3408 -81.1070 132° Southeast  Level FlightAware Approximate
Sat 03:40:00 AM 7.2504 -81.0056 132° Southeast  Level FlightAware Approximate
Sat 03:41:00 AM 7.1600 -80.9043 132° Southeast  Level FlightAware Approximate
Sat 03:42:00 AM 7.0697 -80.8030 132° Southeast  Level FlightAware Approximate
Sat 03:43:00 AM 6.9792 -80.7017 132° Southeast  Level FlightAware Approximate
Sat 03:44:00 AM 6.8888 -80.6005 132° Southeast  Level FlightAware Approximate
Sat 03:45:00 AM 6.7984 -80.4993 132° Southeast  Level FlightAware Approximate
Sat 03:46:00 AM 6.7079 -80.3982 132° Southeast  Level FlightAware Approximate
Sat 03:47:00 AM 6.6174 -80.2971 132° Southeast  Level FlightAware Approximate
Sat 03:48:00 AM 6.5269 -80.1960 132° Southeast  Level FlightAware Approximate
Sat 03:49:00 AM 6.4364 -80.0950 132° Southeast  Level FlightAware Approximate
Sat 03:50:00 AM 6.3458 -79.9940 132° Southeast  Level FlightAware Approximate
Sat 03:51:00 AM 6.2552 -79.8930 132° Southeast  Level FlightAware Approximate
Sat 03:52:00 AM 6.1647 -79.7921 132° Southeast  Level FlightAware Approximate
Sat 03:53:00 AM 6.0740 -79.6912 132° Southeast  Level FlightAware Approximate
Sat 03:54:00 AM 5.9834 -79.5903 132° Southeast  Level FlightAware Approximate
Sat 03:55:00 AM 5.8928 -79.4895 132° Southeast  Level FlightAware Approximate
Sat 03:56:00 AM 5.8021 -79.3887 132° Southeast  Level FlightAware Approximate
Sat 03:57:00 AM 5.7114 -79.2880 132° Southeast  Level FlightAware Approximate
Sat 03:58:00 AM 5.6207 -79.1873 132° Southeast  Level FlightAware Approximate
Sat 03:59:00 AM 5.5300 -79.0866 132° Southeast  Level FlightAware Approximate
Sat 04:00:00 AM 5.4392 -78.9859 132° Southeast  Level FlightAware Approximate
Sat 04:01:00 AM 5.3485 -78.8853 132° Southeast  Level FlightAware Approximate
Sat 04:02:00 AM 5.2577 -78.7847 132° Southeast  Level FlightAware Approximate
Sat 04:03:00 AM 5.1669 -78.6841 132° Southeast  Level FlightAware Approximate
Sat 04:04:00 AM 5.0761 -78.5836 132° Southeast  Level FlightAware Approximate
Sat 04:05:00 AM 4.9853 -78.4831 132° Southeast  Level FlightAware Approximate
Sat 04:06:00 AM 4.8945 -78.3826 132° Southeast  Level FlightAware Approximate
Sat 04:07:00 AM 4.8036 -78.2821 132° Southeast  Level FlightAware Approximate
Sat 04:08:00 AM 4.7127 -78.1817 132° Southeast  Level FlightAware Approximate
Sat 04:09:00 AM 4.6219 -78.0813 132° Southeast  Level FlightAware Approximate
Sat 04:10:00 AM 4.5310 -77.9809 132° Southeast  Level FlightAware Approximate
Sat 04:11:00 AM 4.4401 -77.8806 132° Southeast  Level FlightAware Approximate
Sat 04:12:00 AM 4.3491 -77.7802 132° Southeast  Level FlightAware Approximate
Sat 04:13:00 AM 4.2582 -77.6799 132° Southeast  Level FlightAware Approximate
Sat 04:14:00 AM 4.1673 -77.5797 132° Southeast  Level FlightAware Approximate
Sat 04:15:00 AM 4.0763 -77.4794 132° Southeast  Level FlightAware Approximate
Sat 04:16:00 AM 3.9853 -77.3792 132° Southeast  Level FlightAware Approximate
Sat 04:17:00 AM 3.8943 -77.2790 132° Southeast  Level FlightAware Approximate
Sat 04:18:00 AM 3.8033 -77.1788 132° Southeast  Level FlightAware Approximate
Sat 04:19:00 AM 3.7123 -77.0786 132° Southeast  Level FlightAware Approximate
Sat 04:20:00 AM 3.6213 -76.9784 132° Southeast  Level FlightAware Approximate
Sat 04:21:00 AM 3.5304 -76.8782 132° Southeast  Level FlightAware Approximate
Sat 04:22:00 AM 3.4397 -76.7778 132° Southeast  Level FlightAware Approximate
Sat 04:23:00 AM 3.3490 -76.6774 132° Southeast  Level FlightAware Approximate
Sat 04:24:00 AM 3.2583 -76.5769 132° Southeast  Level FlightAware Approximate
Sat 04:25:00 AM 3.1676 -76.4765 132° Southeast  Level FlightAware Approximate
Sat 04:26:00 AM 3.0769 -76.3762 132° Southeast  Level FlightAware Approximate
Sat 04:27:00 AM 2.9862 -76.2758 132° Southeast  Level FlightAware Approximate
Sat 04:28:00 AM 2.8955 -76.1755 132° Southeast  Level FlightAware Approximate
Sat 04:29:00 AM 2.8047 -76.0751 132° Southeast  Level FlightAware Approximate
Sat 04:30:00 AM 2.7140 -75.9748 132° Southeast  Level FlightAware Approximate
Sat 04:31:00 AM 2.6232 -75.8745 132° Southeast  Level FlightAware Approximate
Sat 04:32:00 AM 2.5325 -75.7742 132° Southeast  Level FlightAware Approximate
Sat 04:33:00 AM 2.4417 -75.6740 132° Southeast  Level FlightAware Approximate
Sat 04:34:00 AM 2.3509 -75.5737 132° Southeast  Level FlightAware Approximate
Sat 04:35:00 AM 2.2602 -75.4735 132° Southeast  Level FlightAware Approximate
Sat 04:36:00 AM 2.1694 -75.3733 132° Southeast  Level FlightAware Approximate
Sat 04:37:00 AM 2.0786 -75.2730 132° Southeast  Level FlightAware Approximate
Sat 04:38:00 AM 1.9878 -75.1728 132° Southeast  Level FlightAware Approximate
Sat 04:39:00 AM 1.8970 -75.0726 132° Southeast  Level FlightAware Approximate
Sat 04:40:00 AM 1.8061 -74.9725 132° Southeast  Level FlightAware Approximate
Sat 04:41:00 AM 1.7153 -74.8723 132° Southeast  Level FlightAware Approximate
Sat 04:42:00 AM 1.6245 -74.7721 132° Southeast  Level FlightAware Approximate
Sat 04:43:00 AM 1.5337 -74.6720 132° Southeast  Level FlightAware Approximate
Sat 04:44:00 AM 1.4428 -74.5718 132° Southeast  Level FlightAware Approximate
Sat 04:45:00 AM 1.3520 -74.4717 132° Southeast  Level FlightAware Approximate
Sat 04:46:00 AM 1.2612 -74.3716 132° Southeast  Level FlightAware Approximate
Sat 04:47:00 AM 1.1703 -74.2714 132° Southeast  Level FlightAware Approximate
Sat 04:48:00 AM 1.0795 -74.1713 132° Southeast  Level FlightAware Approximate
Sat 04:49:00 AM 0.9886 -74.0712 132° Southeast  Level FlightAware Approximate
Sat 04:50:00 AM 0.8978 -73.9711 132° Southeast  Level FlightAware Approximate
Sat 04:51:00 AM 0.8069 -73.8710 132° Southeast  Level FlightAware Approximate
Sat 04:52:00 AM 0.7160 -73.7709 132° Southeast  Level FlightAware Approximate
Sat 04:53:00 AM 0.6252 -73.6708 132° Southeast  Level FlightAware Approximate
Sat 04:54:00 AM 0.5343 -73.5707 132° Southeast  Level FlightAware Approximate
Sat 04:55:00 AM 0.4434 -73.4706 132° Southeast  Level FlightAware Approximate
Sat 04:56:00 AM 0.3526 -73.3706 132° Southeast  Level FlightAware Approximate
Sat 04:57:00 AM 0.2617 -73.2705 132° Southeast  Level FlightAware Approximate
Sat 04:58:00 AM 0.1708 -73.1704 132° Southeast  Level FlightAware Approximate
Sat 04:59:00 AM 0.0800 -73.0703 132° Southeast  Level FlightAware Approximate
Sat 05:00:00 AM -0.0109 -72.9702 132° Southeast  Level FlightAware Approximate
Sat 05:01:00 AM -0.1018 -72.8702 132° Southeast  Level FlightAware Approximate
Sat 05:02:00 AM -0.1927 -72.7701 132° Southeast  Level FlightAware Approximate
Sat 05:03:00 AM -0.2835 -72.6700 132° Southeast  Level FlightAware Approximate
Sat 05:04:00 AM -0.3744 -72.5699 132° Southeast  Level FlightAware Approximate
Sat 05:05:00 AM -0.4653 -72.4698 132° Southeast  Level FlightAware Approximate
Sat 05:06:00 AM -0.5561 -72.3698 132° Southeast  Level FlightAware Approximate
Sat 05:07:00 AM -0.6470 -72.2697 132° Southeast  Level FlightAware Approximate
Sat 05:08:00 AM -0.7379 -72.1696 132° Southeast  Level FlightAware Approximate
Sat 05:09:00 AM -0.8287 -72.0695 132° Southeast  Level FlightAware Approximate
Sat 05:10:00 AM -0.9196 -71.9694 132° Southeast  Level FlightAware Approximate
Sat 05:11:00 AM -1.0104 -71.8693 132° Southeast  Level FlightAware Approximate
Sat 05:12:00 AM -1.1013 -71.7691 132° Southeast  Level FlightAware Approximate
Sat 05:13:00 AM -1.1921 -71.6690 132° Southeast  Level FlightAware Approximate
Sat 05:14:00 AM -1.2830 -71.5689 132° Southeast  Level FlightAware Approximate
Sat 05:15:00 AM -1.3738 -71.4688 132° Southeast  Level FlightAware Approximate
Sat 05:16:00 AM -1.4647 -71.3686 132° Southeast  Level FlightAware Approximate
Sat 05:17:00 AM -1.5555 -71.2685 132° Southeast  Level FlightAware Approximate
Sat 05:18:00 AM -1.6463 -71.1683 132° Southeast  Level FlightAware Approximate
Sat 05:19:00 AM -1.7371 -71.0682 132° Southeast  Level FlightAware Approximate
Sat 05:20:00 AM -1.8280 -70.9680 132° Southeast  Level FlightAware Approximate
Sat 05:21:00 AM -1.9188 -70.8678 132° Southeast  Level FlightAware Approximate
Sat 05:22:00 AM -2.0119 -70.7698 134° Southeast  Level FlightAware Approximate
Sat 05:23:00 AM -2.1062 -70.6728 134° Southeast  Level FlightAware Approximate
Sat 05:24:00 AM -2.2005 -70.5759 134° Southeast  Level FlightAware Approximate
Sat 05:25:00 AM -2.2948 -70.4790 134° Southeast  Level FlightAware Approximate
Sat 05:26:00 AM -2.3891 -70.3820 134° Southeast  Level FlightAware Approximate
Sat 05:27:00 AM -2.4833 -70.2851 134° Southeast  Level FlightAware Approximate
Sat 05:28:00 AM -2.5776 -70.1881 134° Southeast  Level FlightAware Approximate
Sat 05:29:00 AM -2.6719 -70.0911 134° Southeast  Level FlightAware Approximate
Sat 05:30:00 AM -2.7661 -69.9941 134° Southeast  Level FlightAware Approximate
Sat 05:31:00 AM -2.8604 -69.8971 134° Southeast  Level FlightAware Approximate
Sat 05:32:00 AM -2.9546 -69.8000 134° Southeast  Level FlightAware Approximate
Sat 05:33:00 AM -3.0489 -69.7030 134° Southeast  Level FlightAware Approximate
Sat 05:34:00 AM -3.1431 -69.6059 134° Southeast  Level FlightAware Approximate
Sat 05:35:00 AM -3.2373 -69.5088 134° Southeast  Level FlightAware Approximate
Sat 05:36:00 AM -3.3315 -69.4117 134° Southeast  Level FlightAware Approximate
Sat 05:37:00 AM -3.4257 -69.3146 134° Southeast  Level FlightAware Approximate
Sat 05:38:00 AM -3.5199 -69.2175 134° Southeast  Level FlightAware Approximate
Sat 05:39:00 AM -3.6141 -69.1203 134° Southeast  Level FlightAware Approximate
Sat 05:40:00 AM -3.7082 -69.0231 134° Southeast  Level FlightAware Approximate
Sat 05:41:00 AM -3.8024 -68.9259 134° Southeast  Level FlightAware Approximate
Sat 05:42:00 AM -3.8965 -68.8287 134° Southeast  Level FlightAware Approximate
Sat 05:43:00 AM -3.9906 -68.7314 134° Southeast  Level FlightAware Approximate
Sat 05:44:00 AM -4.0848 -68.6342 134° Southeast  Level FlightAware Approximate
Sat 05:45:00 AM -4.1789 -68.5369 134° Southeast  Level FlightAware Approximate
Sat 05:46:00 AM -4.2730 -68.4396 134° Southeast  Level FlightAware Approximate
Sat 05:47:00 AM -4.3671 -68.3422 134° Southeast  Level FlightAware Approximate
Sat 05:48:00 AM -4.4611 -68.2449 134° Southeast  Level FlightAware Approximate
Sat 05:49:00 AM -4.5552 -68.1475 134° Southeast  Level FlightAware Approximate
Sat 05:50:00 AM -4.6493 -68.0500 134° Southeast  Level FlightAware Approximate
Sat 05:51:00 AM -4.7433 -67.9526 134° Southeast  Level FlightAware Approximate
Sat 05:52:00 AM -4.8373 -67.8551 134° Southeast  Level FlightAware Approximate
Sat 05:53:00 AM -4.9313 -67.7577 134° Southeast  Level FlightAware Approximate
Sat 05:54:00 AM -5.0253 -67.6601 134° Southeast  Level FlightAware Approximate
Sat 05:55:00 AM -5.1193 -67.5626 134° Southeast  Level FlightAware Approximate
Sat 05:56:00 AM -5.2132 -67.4650 134° Southeast  Level FlightAware Approximate
Sat 05:57:00 AM -5.3072 -67.3674 134° Southeast  Level FlightAware Approximate
Sat 05:58:00 AM -5.4011 -67.2698 134° Southeast  Level FlightAware Approximate
Sat 05:59:00 AM -5.4950 -67.1721 134° Southeast  Level FlightAware Approximate
Sat 06:00:00 AM -5.5889 -67.0744 134° Southeast  Level FlightAware Approximate
Sat 06:01:00 AM -5.6828 -66.9766 134° Southeast  Level FlightAware Approximate
Sat 06:02:00 AM -5.7767 -66.8789 134° Southeast  Level FlightAware Approximate
Sat 06:03:00 AM -5.8705 -66.7811 134° Southeast  Level FlightAware Approximate
Sat 06:04:00 AM -5.9644 -66.6833 134° Southeast  Level FlightAware Approximate
Sat 06:05:00 AM -6.0582 -66.5854 134° Southeast  Level FlightAware Approximate
Sat 06:06:00 AM -6.1520 -66.4875 134° Southeast  Level FlightAware Approximate
Sat 06:07:00 AM -6.2458 -66.3896 134° Southeast  Level FlightAware Approximate
Sat 06:08:00 AM -6.3395 -66.2916 134° Southeast  Level FlightAware Approximate
Sat 06:09:00 AM -6.4333 -66.1936 134° Southeast  Level FlightAware Approximate
Sat 06:10:00 AM -6.5270 -66.0956 134° Southeast  Level FlightAware Approximate
Sat 06:11:00 AM -6.6207 -65.9975 134° Southeast  Level FlightAware Approximate
Sat 06:12:00 AM -6.7144 -65.8994 134° Southeast  Level FlightAware Approximate
Sat 06:13:00 AM -6.8081 -65.8012 134° Southeast  Level FlightAware Approximate
Sat 06:14:00 AM -6.9017 -65.7031 134° Southeast  Level FlightAware Approximate
Sat 06:15:00 AM -6.9954 -65.6048 134° Southeast  Level FlightAware Approximate
Sat 06:16:00 AM -7.0890 -65.5066 134° Southeast  Level FlightAware Approximate
Sat 06:17:00 AM -7.1826 -65.4083 134° Southeast  Level FlightAware Approximate
Sat 06:18:00 AM -7.2761 -65.3099 134° Southeast  Level FlightAware Approximate
Sat 06:19:00 AM -7.3697 -65.2115 134° Southeast  Level FlightAware Approximate
Sat 06:20:00 AM -7.4632 -65.1131 134° Southeast  Level FlightAware Approximate
Sat 06:21:00 AM -7.5567 -65.0146 134° Southeast  Level FlightAware Approximate
Sat 06:22:00 AM -7.6502 -64.9161 134° Southeast  Level FlightAware Approximate
Sat 06:23:00 AM -7.7436 -64.8176 134° Southeast  Level FlightAware Approximate
Sat 06:24:00 AM -7.8371 -64.7190 134° Southeast  Level FlightAware Approximate
Sat 06:25:00 AM -7.9305 -64.6203 134° Southeast  Level FlightAware Approximate
Sat 06:26:00 AM -8.0239 -64.5216 134° Southeast  Level FlightAware Approximate
Sat 06:27:00 AM -8.1173 -64.4229 134° Southeast  Level FlightAware Approximate
Sat 06:28:00 AM -8.2106 -64.3241 134° Southeast  Level FlightAware Approximate
Sat 06:29:00 AM -8.3039 -64.2253 134° Southeast  Level FlightAware Approximate
Sat 06:30:00 AM -8.3972 -64.1264 134° Southeast  Level FlightAware Approximate
Sat 06:31:00 AM -8.4905 -64.0275 134° Southeast  Level FlightAware Approximate
Sat 06:32:00 AM -8.5837 -63.9285 134° Southeast  Level FlightAware Approximate
Sat 06:33:00 AM -8.6769 -63.8295 134° Southeast  Level FlightAware Approximate
Sat 06:34:00 AM -8.7701 -63.7304 134° Southeast  Level FlightAware Approximate
Sat 06:35:00 AM -8.8633 -63.6313 134° Southeast  Level FlightAware Approximate
Sat 06:36:00 AM -8.9564 -63.5322 134° Southeast  Level FlightAware Approximate
Sat 06:37:00 AM -9.0495 -63.4329 134° Southeast  Level FlightAware Approximate
Sat 06:38:00 AM -9.1426 -63.3337 134° Southeast  Level FlightAware Approximate
Sat 06:39:00 AM -9.2357 -63.2343 134° Southeast  Level FlightAware Approximate
Sat 06:40:00 AM -9.3287 -63.1350 133° Southeast  Level FlightAware Approximate
Sat 06:41:00 AM -9.4217 -63.0355 133° Southeast  Level FlightAware Approximate
Sat 06:42:00 AM -9.5147 -62.9361 133° Southeast  Level FlightAware Approximate
Sat 06:43:00 AM -9.6077 -62.8365 133° Southeast  Level FlightAware Approximate
Sat 06:44:00 AM -9.7006 -62.7369 133° Southeast  Level FlightAware Approximate
Sat 06:45:00 AM -9.7935 -62.6373 133° Southeast  Level FlightAware Approximate
Sat 06:46:00 AM -9.8863 -62.5376 133° Southeast  Level FlightAware Approximate
Sat 06:47:00 AM -9.9792 -62.4378 133° Southeast  Level FlightAware Approximate
Sat 06:48:00 AM -10.0720 -62.3380 133° Southeast  Level FlightAware Approximate
Sat 06:49:00 AM -10.1647 -62.2382 133° Southeast  Level FlightAware Approximate
Sat 06:50:00 AM -10.2575 -62.1382 133° Southeast  Level FlightAware Approximate
Sat 06:51:00 AM -10.3502 -62.0382 133° Southeast  Level FlightAware Approximate
Sat 06:52:00 AM -10.4429 -61.9382 133° Southeast  Level FlightAware Approximate
Sat 06:53:00 AM -10.5355 -61.8381 133° Southeast  Level FlightAware Approximate
Sat 06:54:00 AM -10.6281 -61.7379 133° Southeast  Level FlightAware Approximate
Sat 06:55:00 AM -10.7207 -61.6377 133° Southeast  Level FlightAware Approximate
Sat 06:56:00 AM -10.8133 -61.5374 133° Southeast  Level FlightAware Approximate
Sat 06:57:00 AM -10.9058 -61.4370 133° Southeast  Level FlightAware Approximate
Sat 06:58:00 AM -10.9983 -61.3366 133° Southeast  Level FlightAware Approximate
Sat 06:59:00 AM -11.0907 -61.2362 133° Southeast  Level FlightAware Approximate
Sat 07:00:00 AM -11.1832 -61.1356 133° Southeast  Level FlightAware Approximate
Sat 07:01:00 AM -11.2756 -61.0350 133° Southeast  Level FlightAware Approximate
Sat 07:02:00 AM -11.3679 -60.9343 133° Southeast  Level FlightAware Approximate
Sat 07:03:00 AM -11.4602 -60.8336 133° Southeast  Level FlightAware Approximate
Sat 07:04:00 AM -11.5525 -60.7328 133° Southeast  Level FlightAware Approximate
Sat 07:05:00 AM -11.6448 -60.6320 133° Southeast  Level FlightAware Approximate
Sat 07:06:00 AM -11.7370 -60.5310 133° Southeast  Level FlightAware Approximate
Sat 07:07:00 AM -11.8292 -60.4300 133° Southeast  Level FlightAware Approximate
Sat 07:08:00 AM -11.9213 -60.3290 133° Southeast  Level FlightAware Approximate
Sat 07:09:00 AM -12.0134 -60.2278 133° Southeast  Level FlightAware Approximate
Sat 07:10:00 AM -12.1055 -60.1266 133° Southeast  Level FlightAware Approximate
Sat 07:11:00 AM -12.1976 -60.0253 133° Southeast  Level FlightAware Approximate
Sat 07:12:00 AM -12.2896 -59.9240 133° Southeast  Level FlightAware Approximate
Sat 07:13:00 AM -12.3815 -59.8226 133° Southeast  Level FlightAware Approximate
Sat 07:14:00 AM -12.4735 -59.7211 133° Southeast  Level FlightAware Approximate
Sat 07:15:00 AM -12.5653 -59.6195 133° Southeast  Level FlightAware Approximate
Sat 07:16:00 AM -12.6572 -59.5179 133° Southeast  Level FlightAware Approximate
Sat 07:17:00 AM -12.7490 -59.4162 133° Southeast  Level FlightAware Approximate
Sat 07:18:00 AM -12.8408 -59.3144 133° Southeast  Level FlightAware Approximate
Sat 07:19:00 AM -12.9325 -59.2126 133° Southeast  Level FlightAware Approximate
Sat 07:20:00 AM -13.0242 -59.1106 133° Southeast  Level FlightAware Approximate
Sat 07:21:00 AM -13.1159 -59.0086 133° Southeast  Level FlightAware Approximate
Sat 07:22:00 AM -13.2075 -58.9065 133° Southeast  Level FlightAware Approximate
Sat 07:23:00 AM -13.2991 -58.8044 133° Southeast  Level FlightAware Approximate
Sat 07:24:00 AM -13.3906 -58.7021 133° Southeast  Level FlightAware Approximate
Sat 07:25:00 AM -13.4821 -58.5998 133° Southeast  Level FlightAware Approximate
Sat 07:26:00 AM -13.5735 -58.4975 133° Southeast  Level FlightAware Approximate
Sat 07:27:00 AM -13.6649 -58.3950 133° Southeast  Level FlightAware Approximate
Sat 07:28:00 AM -13.7563 -58.2924 133° Southeast  Level FlightAware Approximate
Sat 07:29:00 AM -13.8476 -58.1898 133° Southeast  Level FlightAware Approximate
Sat 07:30:00 AM -13.9389 -58.0871 132° Southeast  Level FlightAware Approximate
Sat 07:31:00 AM -14.0301 -57.9843 132° Southeast  Level FlightAware Approximate
Sat 07:32:00 AM -14.1213 -57.8814 132° Southeast  Level FlightAware Approximate
Sat 07:33:00 AM -14.2125 -57.7785 132° Southeast  Level FlightAware Approximate
Sat 07:34:00 AM -14.3036 -57.6754 132° Southeast  Level FlightAware Approximate
Sat 07:35:00 AM -14.3947 -57.5723 132° Southeast  Level FlightAware Approximate
Sat 07:36:00 AM -14.4857 -57.4691 132° Southeast  Level FlightAware Approximate
Sat 07:37:00 AM -14.5766 -57.3658 132° Southeast  Level FlightAware Approximate
Sat 07:38:00 AM -14.6676 -57.2624 132° Southeast  Level FlightAware Approximate
Sat 07:39:00 AM -14.7585 -57.1590 132° Southeast  Level FlightAware Approximate
Sat 07:40:00 AM -14.8493 -57.0554 132° Southeast  Level FlightAware Approximate
Sat 07:41:00 AM -14.9401 -56.9518 132° Southeast  Level FlightAware Approximate
Sat 07:42:00 AM -15.0308 -56.8481 132° Southeast  Level FlightAware Approximate
Sat 07:43:00 AM -15.1215 -56.7443 132° Southeast  Level FlightAware Approximate
Sat 07:44:00 AM -15.2122 -56.6404 132° Southeast  Level FlightAware Approximate
Sat 07:45:00 AM -15.3028 -56.5364 132° Southeast  Level FlightAware Approximate
Sat 07:46:00 AM -15.3933 -56.4323 132° Southeast  Level FlightAware Approximate
Sat 07:47:00 AM -15.4838 -56.3281 132° Southeast  Level FlightAware Approximate
Sat 07:48:00 AM -15.5743 -56.2239 132° Southeast  Level FlightAware Approximate
Sat 07:49:00 AM -15.6647 -56.1195 132° Southeast  Level FlightAware Approximate
Sat 07:50:00 AM -15.7551 -56.0151 132° Southeast  Level FlightAware Approximate
Sat 07:51:00 AM -15.8454 -55.9105 132° Southeast  Level FlightAware Approximate
Sat 07:52:00 AM -15.9356 -55.8059 132° Southeast  Level FlightAware Approximate
Sat 07:53:00 AM -16.0258 -55.7012 132° Southeast  Level FlightAware Approximate
Sat 07:54:00 AM -16.1160 -55.5964 132° Southeast  Level FlightAware Approximate
Sat 07:55:00 AM -16.2061 -55.4914 132° Southeast  Level FlightAware Approximate
Sat 07:56:00 AM -16.2962 -55.3864 132° Southeast  Level FlightAware Approximate
Sat 07:57:00 AM -16.3862 -55.2813 132° Southeast  Level FlightAware Approximate
Sat 07:58:00 AM -16.4761 -55.1761 132° Southeast  Level FlightAware Approximate
Sat 07:59:00 AM -16.5660 -55.0708 132° Southeast  Level FlightAware Approximate
Sat 08:00:00 AM -16.6558 -54.9654 132° Southeast  Level FlightAware Approximate
Sat 08:01:00 AM -16.7456 -54.8599 132° Southeast  Level FlightAware Approximate
Sat 08:02:00 AM -16.8354 -54.7543 132° Southeast  Level FlightAware Approximate
Sat 08:03:00 AM -16.9251 -54.6486 132° Southeast  Level FlightAware Approximate
Sat 08:04:00 AM -17.0147 -54.5428 132° Southeast  Level FlightAware Approximate
Sat 08:05:00 AM -17.1042 -54.4369 132° Southeast  Level FlightAware Approximate
Sat 08:06:00 AM -17.1938 -54.3309 131° Southeast  Level FlightAware Approximate
Sat 08:07:00 AM -17.2832 -54.2248 131° Southeast  Level FlightAware Approximate
Sat 08:08:00 AM -17.3726 -54.1186 131° Southeast  Level FlightAware Approximate
Sat 08:09:00 AM -17.4620 -54.0123 131° Southeast  Level FlightAware Approximate
Sat 08:10:00 AM -17.5513 -53.9059 131° Southeast  Level FlightAware Approximate
Sat 08:11:00 AM -17.6405 -53.7994 131° Southeast  Level FlightAware Approximate
Sat 08:12:00 AM -17.7297 -53.6927 131° Southeast  Level FlightAware Approximate
Sat 08:13:00 AM -17.8188 -53.5860 131° Southeast  Level FlightAware Approximate
Sat 08:14:00 AM -17.9079 -53.4791 131° Southeast  Level FlightAware Approximate
Sat 08:15:00 AM -17.9969 -53.3722 131° Southeast  Level FlightAware Approximate
Sat 08:16:00 AM -18.0858 -53.2651 131° Southeast  Level FlightAware Approximate
Sat 08:17:00 AM -18.1747 -53.1580 131° Southeast  Level FlightAware Approximate
Sat 08:18:00 AM -18.2636 -53.0507 131° Southeast  Level FlightAware Approximate
Sat 08:19:00 AM -18.3523 -52.9433 131° Southeast  Level FlightAware Approximate
Sat 08:20:00 AM -18.4410 -52.8358 131° Southeast  Level FlightAware Approximate
Sat 08:21:00 AM -18.5297 -52.7282 131° Southeast  Level FlightAware Approximate
Sat 08:22:00 AM -18.6183 -52.6205 131° Southeast  Level FlightAware Approximate
Sat 08:23:00 AM -18.7068 -52.5127 131° Southeast  Level FlightAware Approximate
Sat 08:24:00 AM -18.7953 -52.4048 131° Southeast  Level FlightAware Approximate
Sat 08:25:00 AM -18.8837 -52.2967 131° Southeast  Level FlightAware Approximate
Sat 08:26:00 AM -18.9720 -52.1885 131° Southeast  Level FlightAware Approximate
Sat 08:27:00 AM -19.0603 -52.0802 131° Southeast  Level FlightAware Approximate
Sat 08:28:00 AM -19.1485 -51.9718 131° Southeast  Level FlightAware Approximate
Sat 08:29:00 AM -19.2367 -51.8633 131° Southeast  Level FlightAware Approximate
Sat 08:30:00 AM -19.3247 -51.7547 131° Southeast  Level FlightAware Approximate
Sat 08:31:00 AM -19.4128 -51.6459 131° Southeast  Level FlightAware Approximate
Sat 08:32:00 AM -19.5007 -51.5371 131° Southeast  Level FlightAware Approximate
Sat 08:33:00 AM -19.5886 -51.4281 131° Southeast  Level FlightAware Approximate
Sat 08:34:00 AM -19.6764 -51.3190 131° Southeast  Level FlightAware Approximate
Sat 08:35:00 AM -19.7642 -51.2098 131° Southeast  Level FlightAware Approximate
Sat 08:36:00 AM -19.8519 -51.1004 130° Southeast  Level FlightAware Approximate
Sat 08:37:00 AM -19.9395 -50.9910 130° Southeast  Level FlightAware Approximate
Sat 08:38:00 AM -20.0271 -50.8814 130° Southeast  Level FlightAware Approximate
Sat 08:39:00 AM -20.1146 -50.7717 130° Southeast  Level FlightAware Approximate
Sat 08:40:00 AM -20.2020 -50.6618 130° Southeast  Level FlightAware Approximate
Sat 08:41:00 AM -20.2894 -50.5519 130° Southeast  Level FlightAware Approximate
Sat 08:42:00 AM -20.3766 -50.4418 130° Southeast  Level FlightAware Approximate
Sat 08:43:00 AM -20.4639 -50.3316 130° Southeast  Level FlightAware Approximate
Sat 08:44:00 AM -20.5510 -50.2213 130° Southeast  Level FlightAware Approximate
Sat 08:45:00 AM -20.6381 -50.1108 130° Southeast  Level FlightAware Approximate
Sat 08:46:00 AM -20.7251 -50.0003 130° Southeast  Level FlightAware Approximate
Sat 08:47:00 AM -20.8120 -49.8895 130° Southeast  Level FlightAware Approximate
Sat 08:48:00 AM -20.8989 -49.7787 130° Southeast  Level FlightAware Approximate
Sat 08:49:00 AM -20.9857 -49.6677 130° Southeast  Level FlightAware Approximate
Sat 08:50:00 AM -21.0724 -49.5566 130° Southeast  Level FlightAware Approximate
Sat 08:51:00 AM -21.1591 -49.4454 130° Southeast  Level FlightAware Approximate
Sat 08:52:00 AM -21.2456 -49.3341 130° Southeast  Level FlightAware Approximate
Sat 08:53:00 AM -21.3321 -49.2226 130° Southeast  Level FlightAware Approximate
Sat 08:54:00 AM -21.4186 -49.1110 130° Southeast  Level FlightAware Approximate
Sat 08:55:00 AM -21.5049 -48.9992 130° Southeast  Level FlightAware Approximate
Sat 08:56:00 AM -21.5912 -48.8873 130° Southeast  Level FlightAware Approximate
Sat 08:57:00 AM -21.6774 -48.7753 130° Southeast  Level FlightAware Approximate
Sat 08:58:00 AM -21.7636 -48.6632 130° Southeast  Level FlightAware Approximate
Sat 08:59:00 AM -21.8496 -48.5509 130° Southeast  Level FlightAware Approximate
Sat 09:00:00 AM -21.9356 -48.4385 130° Southeast  Level FlightAware Approximate
Sat 09:01:00 AM -22.0215 -48.3259 129° Southeast  Level FlightAware Approximate
Sat 09:02:00 AM -22.1095 -48.2152 132° Southeast  Level FlightAware Approximate
Sat 09:03:00 AM -22.1970 -48.1040 129° Southeast  Level FlightAware Approximate
Sat 09:04:00 AM -22.2813 -47.9901 131° Southeast  Level FlightAware Approximate
Sat 09:05:00 AM -22.3696 -47.8794 129° Southeast  Level FlightAware Approximate
Sat 09:06:00 AM -22.4549 -47.7659 129° Southeast  Level FlightAware Approximate
Sat 09:07:00 AM -22.5400 -47.6523 129° Southeast  Level FlightAware Approximate
Sat 09:08:00 AM -22.6224 -47.5363 127° Southeast  Level FlightAware Approximate
Sat 09:09:00 AM -22.7035 -47.4190 127° Southeast  Level FlightAware Approximate
Sat 09:10:00 AM -22.7882 -47.3048 129° Southeast  Level FlightAware Approximate
Sat 09:11:00 AM -22.8735 -47.1910 129° Southeast  Level FlightAware Approximate
Sat 09:12:00 AM -22.9626 -47.0808 134° Southeast  Level FlightAware Approximate
Sat 09:13:00 AM -23.0535 -46.9723 128° Southeast  Level FlightAware Approximate
Sat 09:14:00 AM -23.1374 -46.8570 128° Southeast  Level FlightAware Approximate
Sat 09:15:00 AM -23.2096 -46.7352 132° Southeast  Level FlightAware Approximate
Sat 09:16:00 AM -23.2984 -46.6244 129° Southeast  Level FlightAware Approximate
Sat 09:17:00 AM -23.3839 -46.5104 129° Southeast  Level FlightAware Approximate
Sat 09:18:00 AM -23.4167 -46.4667 129° Southeast  Level FlightAware Approximate
Sat 09:19:00 AM -23.4321 -46.4695 129° Southeast  Level Estimated
Sat 09:20:00 AM -23.4321 -46.4695 129° Southeast  Level Estimated
Sat 09:21:00 AM -23.4321 -46.4695 129° Southeast  Level Estimated
Sat 09:22:00 AM -23.4321 -46.4695 129° Southeast  Level Estimated
Sat 09:23:00 AM -23.4321 -46.4695 129° Southeast  Level Estimated
Sat 09:24:00 AM -23.4321 -46.4695 129° Southeast  Level Estimated
Sat 09:25:00 AM -23.4321 -46.4695 129° Southeast  Level Estimated
Sat 09:26:00 AM -23.4321 -46.4695 129° Southeast  Level Estimated
Sat 09:27:00 AM -23.4321 -46.4695 129° Southeast  Level Estimated
Sat 09:28:00 AM -23.4321 -46.4695 129° Southeast  Level Estimated

Login

Don't have an account? Register now (free) for customized features, flight alerts, and more!